TSC4765 LPPR-CYYZ
Flight info
| Callsign | TSC4765 |
|---|---|
| Flight time | N/A |
| Altitude | 36000 |
| Route | UBANI DCT ARMED/M082F360 DCT 44N020W 45N030W/M082F380 47N040W 47N050W DCT PORTI/N0464F380 N200E HULTN/N0469F400 DCT LETAK IMEBA9 |
| Aircraft | A343/H-SDE2E3FGHIJ4J5M1RWXY/LB1D1 |
Departure
| Time | 2026-05-05 18:49 |
|---|---|
| Airport | Francisco de Sá Carneiro Airport (LPPR) |
Arrival
| Time | N/A |
|---|---|
| Airport | Toronto Pearson International Airport (CYYZ) |
| Time | Latitude | Longitude | Altitude | Speed | Heading |
|---|---|---|---|---|---|
| 2026-05-05 18:21 | 41.23508 | -8.67290 | 249 ft | 0 kts | 114° |
| 2026-05-05 18:35 | 41.23509 | -8.67294 | 248 ft | 2 kts | 114° |
| 2026-05-05 18:36 | 41.23518 | -8.67316 | 247 ft | 3 kts | 124° |
| 2026-05-05 18:36 | 41.23530 | -8.67337 | 246 ft | 3 kts | 139° |
| 2026-05-05 18:36 | 41.23546 | -8.67351 | 245 ft | 3 kts | 162° |
| 2026-05-05 18:36 | 41.23563 | -8.67355 | 245 ft | 3 kts | 202° |
| 2026-05-05 18:37 | 41.23568 | -8.67352 | 245 ft | 2 kts | 212° |
| 2026-05-05 18:42 | 41.23561 | -8.67357 | 245 ft | 3 kts | 211° |
| 2026-05-05 18:42 | 41.23524 | -8.67383 | 244 ft | 9 kts | 201° |
| 2026-05-05 18:42 | 41.23483 | -8.67385 | 243 ft | 4 kts | 171° |
| 2026-05-05 18:43 | 41.23456 | -8.67378 | 244 ft | 4 kts | 168° |
| 2026-05-05 18:43 | 41.23418 | -8.67368 | 243 ft | 6 kts | 169° |
| 2026-05-05 18:43 | 41.23370 | -8.67367 | 242 ft | 8 kts | 194° |
| 2026-05-05 18:43 | 41.23335 | -8.67421 | 240 ft | 8 kts | 252° |
| 2026-05-05 18:44 | 41.23324 | -8.67488 | 239 ft | 8 kts | 258° |
| 2026-05-05 18:44 | 41.23319 | -8.67519 | 239 ft | 2 kts | 258° |
| 2026-05-05 18:44 | 41.23318 | -8.67528 | 239 ft | 0 kts | 259° |
| 2026-05-05 18:45 | 41.23318 | -8.67529 | 239 ft | 0 kts | 259° |
| 2026-05-05 18:45 | 41.23314 | -8.67549 | 239 ft | 5 kts | 258° |
| 2026-05-05 18:45 | 41.23308 | -8.67593 | 239 ft | 0 kts | 258° |
| 2026-05-05 18:45 | 41.23307 | -8.67595 | 239 ft | 2 kts | 258° |
| 2026-05-05 18:46 | 41.23302 | -8.67632 | 240 ft | 6 kts | 259° |
| 2026-05-05 18:46 | 41.23308 | -8.67702 | 242 ft | 9 kts | 296° |
| 2026-05-05 18:46 | 41.23365 | -8.67746 | 242 ft | 8 kts | 345° |
| 2026-05-05 18:46 | 41.23385 | -8.67752 | 241 ft | 0 kts | 348° |
| 2026-05-05 18:48 | 41.23387 | -8.67753 | 241 ft | 3 kts | 348° |
| 2026-05-05 18:48 | 41.23553 | -8.67797 | 238 ft | 51 kts | 348° |
| 2026-05-05 18:48 | 41.24083 | -8.67936 | 222 ft | 102 kts | 349° |
| 2026-05-05 18:48 | 41.24923 | -8.68154 | 203 ft | 143 kts | 348° |
| 2026-05-05 18:49 | 41.25957 | -8.68413 | 560 ft | 150 kts | 351° |
| 2026-05-05 18:49 | 41.26986 | -8.68678 | 1108 ft | 151 kts | 347° |
| 2026-05-05 18:49 | 41.28036 | -8.68957 | 1553 ft | 162 kts | 347° |
| 2026-05-05 18:49 | 41.29195 | -8.69270 | 1891 ft | 182 kts | 347° |
| 2026-05-05 18:50 | 41.30485 | -8.69649 | 2265 ft | 198 kts | 345° |
| 2026-05-05 18:50 | 41.31908 | -8.70121 | 2573 ft | 223 kts | 344° |
| 2026-05-05 18:50 | 41.33481 | -8.70687 | 2994 ft | 243 kts | 344° |
| 2026-05-05 18:50 | 41.35136 | -8.71258 | 3840 ft | 242 kts | 347° |
| 2026-05-05 18:51 | 41.36782 | -8.71648 | 4853 ft | 240 kts | 350° |
| 2026-05-05 18:51 | 41.38420 | -8.72038 | 5701 ft | 239 kts | 343° |
| 2026-05-05 18:51 | 41.39964 | -8.72948 | 6402 ft | 247 kts | 326° |
| 2026-05-05 18:51 | 41.41182 | -8.74604 | 7073 ft | 255 kts | 303° |
| 2026-05-05 18:52 | 41.42002 | -8.76720 | 7828 ft | 259 kts | 295° |
| 2026-05-05 18:52 | 41.42626 | -8.79003 | 8558 ft | 264 kts | 290° |
| 2026-05-05 18:52 | 41.43149 | -8.81368 | 9280 ft | 268 kts | 288° |
| 2026-05-05 18:52 | 41.43641 | -8.83783 | 9991 ft | 272 kts | 288° |
| 2026-05-05 18:53 | 41.44145 | -8.86243 | 10486 ft | 282 kts | 288° |
| 2026-05-05 18:53 | 41.44698 | -8.88827 | 10790 ft | 298 kts | 289° |
| 2026-05-05 18:53 | 41.45302 | -8.91542 | 11075 ft | 313 kts | 289° |
| 2026-05-05 18:53 | 41.45943 | -8.94346 | 11346 ft | 328 kts | 289° |
| 2026-05-05 18:54 | 41.46629 | -8.97316 | 11624 ft | 342 kts | 289° |
| 2026-05-05 18:54 | 41.47344 | -9.00397 | 11970 ft | 353 kts | 289° |
| 2026-05-05 18:54 | 41.48076 | -9.03559 | 12504 ft | 359 kts | 289° |
| 2026-05-05 18:54 | 41.48813 | -9.06755 | 13113 ft | 363 kts | 289° |
| 2026-05-05 18:55 | 41.49557 | -9.09993 | 13747 ft | 366 kts | 289° |
| 2026-05-05 18:55 | 41.50302 | -9.13244 | 14378 ft | 367 kts | 289° |
| 2026-05-05 18:55 | 41.51050 | -9.16509 | 14966 ft | 369 kts | 289° |
| 2026-05-05 18:55 | 41.51803 | -9.19799 | 15546 ft | 372 kts | 289° |
| 2026-05-05 18:56 | 41.52559 | -9.23108 | 16108 ft | 375 kts | 289° |
| 2026-05-05 18:56 | 41.53321 | -9.26446 | 16683 ft | 377 kts | 289° |
| 2026-05-05 18:56 | 41.54086 | -9.29806 | 17291 ft | 379 kts | 289° |
| 2026-05-05 18:56 | 41.54855 | -9.33183 | 17869 ft | 381 kts | 289° |
| 2026-05-05 18:57 | 41.55628 | -9.36586 | 18427 ft | 384 kts | 289° |
| 2026-05-05 18:57 | 41.56407 | -9.40020 | 18915 ft | 387 kts | 288° |
| 2026-05-05 18:57 | 41.57178 | -9.43425 | 19405 ft | 389 kts | 288° |
| 2026-05-05 18:57 | 41.57961 | -9.46888 | 19896 ft | 391 kts | 288° |
| 2026-05-05 18:58 | 41.58752 | -9.50387 | 20328 ft | 395 kts | 288° |
| 2026-05-05 18:58 | 41.59546 | -9.53913 | 20826 ft | 397 kts | 288° |